Time;durP1;ratioP1;P1;durP2;ratioP2;P2;SDS_P1;SDS_P2;PMS_P1;PMS_P2;Temp;Humidity;BMP_temperature;BMP_pressure;BME280_temperature;BME280_humidity;BME280_pressure;Samples;Min_cycle;Max_cycle;Signal;HPM_P1;HPM_P2
2022/08/30 00:03:14;;;;;;;6.65;5.07;;;;;;;19.93;100.00;100552.34;5548999;32;35456;-69
2022/08/30 00:06:18;;;;;;;7.50;4.97;;;;;;;19.99;100.00;100552.50;5535370;32;32740;-69
2022/08/30 00:09:21;;;;;;;6.97;4.45;;;;;;;20.09;100.00;100555.50;5548893;32;34283;-69
2022/08/30 00:12:24;;;;;;;9.23;5.10;;;;;;;20.16;100.00;100557.03;5535460;32;34130;-69
2022/08/30 00:15:28;;;;;;;5.35;4.72;;;;;;;20.25;100.00;100557.53;5549092;32;34239;-70
2022/08/30 00:18:30;;;;;;;7.12;4.87;;;;;;;20.31;100.00;100559.37;5548607;32;34082;-68
2022/08/30 00:21:33;;;;;;;7.45;4.90;;;;;;;20.34;100.00;100562.44;5548602;32;34186;-69
2022/08/30 00:24:37;;;;;;;8.18;5.03;;;;;;;20.38;100.00;100552.03;5535316;32;34173;-69
2022/08/30 00:27:40;;;;;;;7.25;4.68;;;;;;;20.39;100.00;100559.06;5534783;32;32672;-69
2022/08/30 00:30:44;;;;;;;7.55;4.87;;;;;;;20.35;100.00;100547.09;5548822;32;34916;-70
2022/08/30 00:33:47;;;;;;;8.90;4.80;;;;;;;20.27;100.00;100553.59;5548320;32;33717;-70
2022/08/30 00:36:49;;;;;;;7.03;5.20;;;;;;;20.18;100.00;100548.75;5548885;32;34322;-70
2022/08/30 00:39:52;;;;;;;5.72;4.62;;;;;;;20.10;100.00;100551.72;5551140;32;34297;-70
2022/08/30 00:42:57;;;;;;;8.35;5.15;;;;;;;20.07;100.00;100560.25;5537751;32;32996;-70
2022/08/30 00:46:06;;;;;;;8.70;5.55;;;;;;;20.05;100.00;100559.66;5551283;32;34448;-70
2022/08/30 00:49:11;;;;;;;8.35;5.37;;;;;;;20.01;100.00;100555.78;5551287;32;34134;-70
2022/08/30 00:52:17;;;;;;;6.47;5.45;;;;;;;19.90;100.00;100552.78;5551071;32;34977;-70
2022/08/30 00:55:20;;;;;;;7.55;5.50;;;;;;;19.80;100.00;100555.16;5537280;32;32647;-70
2022/08/30 00:58:29;;;;;;;8.55;5.40;;;;;;;19.77;100.00;100554.78;5537539;32;32766;-70
2022/08/30 01:01:32;;;;;;;7.10;5.55;;;;;;;19.70;100.00;100551.38;5551237;32;34256;-70
2022/08/30 01:04:39;;;;;;;8.55;5.50;;;;;;;19.65;100.00;100551.22;5551075;32;34980;-69
2022/08/30 01:07:42;;;;;;;9.00;5.50;;;;;;;19.62;100.00;100562.41;5538041;32;35335;-70
2022/08/30 01:10:45;;;;;;;7.43;5.80;;;;;;;19.58;100.00;100561.22;5551034;32;34828;-70
2022/08/30 01:13:50;;;;;;;11.23;5.82;;;;;;;19.56;100.00;100556.03;5537173;32;33400;-70
2022/08/30 01:16:56;;;;;;;9.63;5.80;;;;;;;19.51;100.00;100556.69;5551092;32;34707;-70
2022/08/30 01:20:04;;;;;;;7.07;6.00;;;;;;;19.49;100.00;100561.50;5551065;32;34839;-69
2022/08/30 01:23:12;;;;;;;8.98;6.00;;;;;;;19.44;100.00;100552.44;5550888;32;34317;-70
2022/08/30 01:26:16;;;;;;;8.85;6.20;;;;;;;19.40;100.00;100552.03;5550912;32;34809;-70
2022/08/30 01:29:24;;;;;;;8.32;6.25;;;;;;;19.42;100.00;100549.94;5537089;32;33441;-70
2022/08/30 01:32:28;;;;;;;8.02;6.05;;;;;;;19.40;100.00;100553.91;5536936;32;34238;-70
2022/08/30 01:35:37;;;;;;;7.20;5.60;;;;;;;19.38;100.00;100551.41;5550741;32;34561;-69
2022/08/30 01:38:52;;;;;;;7.70;5.95;;;;;;;19.33;100.00;100545.87;5550972;32;34387;-70
2022/08/30 01:41:56;;;;;;;8.63;6.20;;;;;;;19.30;100.00;100543.62;5550765;32;34460;-69
2022/08/30 01:44:59;;;;;;;8.35;6.65;;;;;;;19.28;100.00;100540.34;5537326;32;32916;-70
2022/08/30 01:48:02;;;;;;;7.22;5.87;;;;;;;19.22;100.00;100546.59;5550184;32;34496;-70
2022/08/30 01:51:13;;;;;;;9.65;6.90;;;;;;;19.20;100.00;100546.00;5550845;32;34871;-70
2022/08/30 01:54:15;;;;;;;10.07;6.93;;;;;;;19.19;100.00;100540.84;5550656;32;35474;-70
2022/08/30 01:57:21;;;;;;;8.68;6.60;;;;;;;19.15;100.00;100545.00;5551007;32;34647;-70
2022/08/30 02:00:24;;;;;;;10.00;7.05;;;;;;;19.14;100.00;100536.13;5550423;32;34252;-70
2022/08/30 02:03:31;;;;;;;8.95;7.15;;;;;;;19.10;100.00;100543.81;5550650;32;34262;-70
2022/08/30 02:06:37;;;;;;;13.07;7.07;;;;;;;19.07;100.00;100543.44;5550563;32;34234;-70
2022/08/30 02:09:40;;;;;;;9.88;7.25;;;;;;;19.05;100.00;100540.94;5550630;32;34866;-70
2022/08/30 02:12:47;;;;;;;10.63;6.72;;;;;;;19.04;100.00;100539.31;5550675;32;34139;-70
2022/08/30 02:15:50;;;;;;;8.27;6.80;;;;;;;19.00;100.00;100532.72;5550779;32;35101;-70
2022/08/30 02:18:56;;;;;;;8.77;6.68;;;;;;;18.98;100.00;100545.53;5550453;32;34178;-70
2022/08/30 02:21:58;;;;;;;8.65;6.70;;;;;;;18.96;100.00;100536.06;5550426;32;34884;-70
2022/08/30 02:25:03;;;;;;;16.73;7.68;;;;;;;18.98;100.00;100537.47;5550436;32;34300;-70
2022/08/30 02:28:07;;;;;;;8.35;6.53;;;;;;;19.05;100.00;100530.19;5536900;32;33498;-70
2022/08/30 02:31:10;;;;;;;8.50;6.80;;;;;;;18.99;100.00;100525.69;5550537;32;35011;-70
2022/08/30 02:34:14;;;;;;;9.85;7.15;;;;;;;19.02;100.00;100530.66;5550319;32;34539;-70
2022/08/30 02:37:17;;;;;;;7.50;6.10;;;;;;;18.98;100.00;100537.47;5550259;32;34145;-70
2022/08/30 02:40:21;;;;;;;8.30;6.10;;;;;;;18.95;100.00;100539.78;5550051;32;34184;-71
2022/08/30 02:43:24;;;;;;;11.80;6.43;;;;;;;18.89;100.00;100536.09;5536820;32;32671;-70
2022/08/30 02:46:27;;;;;;;7.50;5.80;;;;;;;18.84;100.00;100540.47;5550439;32;34519;-70
2022/08/30 02:49:37;;;;;;;8.57;6.12;;;;;;;18.86;100.00;100539.25;5550177;32;34876;-70
2022/08/30 02:52:39;;;;;;;11.75;6.95;;;;;;;18.78;100.00;100531.44;5550557;32;34852;-70
2022/08/30 02:55:43;;;;;;;7.62;6.20;;;;;;;18.73;100.00;100533.97;5536569;32;32565;-70
2022/08/30 02:58:47;;;;;;;7.68;6.40;;;;;;;18.87;100.00;100542.75;5549902;32;34270;-70
2022/08/30 03:01:49;;;;;;;9.70;6.45;;;;;;;18.75;100.00;100533.72;5549499;32;34899;-69
2022/08/30 03:04:52;;;;;;;9.35;6.40;;;;;;;18.75;100.00;100525.66;5550039;32;34919;-70
2022/08/30 03:07:55;;;;;;;8.52;6.37;;;;;;;18.74;100.00;100532.06;5549968;32;34318;-70
2022/08/30 03:10:58;;;;;;;8.75;6.62;;;;;;;18.65;100.00;100531.50;5549848;32;34177;-70
2022/08/30 03:14:01;;;;;;;9.52;6.62;;;;;;;18.66;100.00;100538.53;5549906;32;34602;-70
2022/08/30 03:17:06;;;;;;;9.95;6.43;;;;;;;18.67;100.00;100532.97;5549864;32;34244;-71
2022/08/30 03:20:15;;;;;;;8.50;6.18;;;;;;;18.61;100.00;100535.69;5536752;32;34302;-70
2022/08/30 03:23:18;;;;;;;8.02;6.60;;;;;;;18.54;100.00;100538.41;5549683;32;34244;-70
2022/08/30 03:26:23;;;;;;;7.72;6.20;;;;;;;18.57;100.00;100537.97;5549908;32;34232;-69
2022/08/30 03:29:28;;;;;;;7.40;6.55;;;;;;;18.49;100.00;100556.19;5549603;32;34234;-70
2022/08/30 03:32:31;;;;;;;7.37;6.60;;;;;;;18.63;100.00;100555.94;5549893;32;34767;-70
2022/08/30 03:35:33;;;;;;;10.82;6.55;;;;;;;18.51;100.00;100554.09;5549635;32;35468;-70
2022/08/30 03:38:37;;;;;;;9.30;6.62;;;;;;;18.45;100.00;100557.62;5535847;32;35741;-70
2022/08/30 03:41:39;;;;;;;7.97;6.82;;;;;;;18.42;100.00;100558.91;5549222;32;35469;-70
2022/08/30 03:44:42;;;;;;;8.52;6.85;;;;;;;18.36;100.00;100556.25;5549473;32;34174;-69
2022/08/30 03:47:45;;;;;;;9.02;6.93;;;;;;;18.36;100.00;100557.06;5549304;32;34921;-70
2022/08/30 03:50:48;;;;;;;11.48;6.70;;;;;;;18.28;100.00;100562.69;5549561;32;34954;-70
2022/08/30 03:53:50;;;;;;;8.50;6.57;;;;;;;18.24;100.00;100564.16;5535753;32;33382;-69
2022/08/30 03:56:55;;;;;;;9.18;7.03;;;;;;;18.20;100.00;100565.63;5549101;32;34840;-70
2022/08/30 03:59:57;;;;;;;11.20;6.95;;;;;;;18.18;100.00;100571.19;5549352;32;34882;-70
2022/08/30 04:03:00;;;;;;;10.93;7.00;;;;;;;18.18;100.00;100567.69;5549216;32;34257;-70
2022/08/30 04:06:03;;;;;;;8.52;7.20;;;;;;;18.24;100.00;100573.03;5549259;32;34396;-70
2022/08/30 04:09:06;;;;;;;9.57;7.20;;;;;;;18.17;100.00;100574.91;5548876;32;34209;-69
2022/08/30 04:12:09;;;;;;;8.73;7.10;;;;;;;18.17;100.00;100579.47;5549623;32;34231;-70
2022/08/30 04:15:12;;;;;;;9.57;7.53;;;;;;;18.17;100.00;100577.59;5551842;32;34513;-70
2022/08/30 04:18:16;;;;;;;8.02;6.87;;;;;;;18.14;100.00;100578.03;5551443;32;35132;-70
2022/08/30 04:21:18;;;;;;;9.70;7.45;;;;;;;18.20;100.00;100581.75;5551386;32;34138;-70
2022/08/30 04:24:22;;;;;;;10.95;7.15;;;;;;;18.15;100.00;100597.66;5551470;32;34159;-70
2022/08/30 04:27:24;;;;;;;11.68;6.85;;;;;;;18.15;100.00;100603.81;5551364;32;34868;-70
2022/08/30 04:30:27;;;;;;;15.32;7.68;;;;;;;18.14;100.00;100604.88;5551361;32;34206;-71
2022/08/30 04:33:29;;;;;;;9.73;7.12;;;;;;;18.16;100.00;100612.72;5551271;32;34216;-71
2022/08/30 04:36:36;;;;;;;9.95;7.25;;;;;;;18.21;100.00;100613.72;5551445;32;34846;-71
2022/08/30 04:39:41;;;;;;;12.15;7.25;;;;;;;18.31;100.00;100623.19;5551220;32;34151;-71
2022/08/30 04:42:44;;;;;;;14.35;7.50;;;;;;;18.45;100.00;100624.78;5551163;32;34121;-70
2022/08/30 04:45:47;;;;;;;12.85;7.25;;;;;;;18.60;100.00;100631.59;5537621;32;32838;-71
2022/08/30 04:48:49;;;;;;;7.40;6.53;;;;;;;18.79;100.00;100632.53;5551173;32;34217;-70
2022/08/30 04:51:52;;;;;;;8.85;6.97;;;;;;;18.97;100.00;100637.19;5551116;32;34326;-70
2022/08/30 04:54:56;;;;;;;13.65;7.00;;;;;;;19.19;100.00;100637.66;5537583;32;33479;-70
2022/08/30 04:57:59;;;;;;;7.72;6.70;;;;;;;19.38;100.00;100642.06;5551029;32;34858;-70
2022/08/30 05:01:03;;;;;;;9.93;6.72;;;;;;;19.48;100.00;100643.25;5550832;32;34718;-70
2022/08/30 05:04:06;;;;;;;12.70;7.10;;;;;;;19.53;100.00;100647.97;5551028;32;34842;-71
2022/08/30 05:07:09;;;;;;;10.77;6.85;;;;;;;19.59;100.00;100649.81;5551325;32;34838;-70
2022/08/30 05:10:11;;;;;;;13.18;7.20;;;;;;;19.61;100.00;100653.09;5550834;32;34910;-73
2022/08/30 05:13:16;;;;;;;9.40;5.95;;;;;;;19.66;100.00;100653.25;5550914;32;34279;-70
2022/08/30 05:16:19;;;;;;;11.20;6.10;;;;;;;19.82;100.00;100654.56;5550814;32;35390;-70
2022/08/30 05:19:22;;;;;;;9.02;6.40;;;;;;;19.84;100.00;100655.19;5550920;32;34192;-70
2022/08/30 05:22:26;;;;;;;11.52;6.62;;;;;;;20.10;100.00;100654.91;5550641;32;34240;-71
2022/08/30 05:25:32;;;;;;;8.25;5.80;;;;;;;20.09;100.00;100657.84;5550374;32;35041;-71
2022/08/30 05:28:36;;;;;;;8.98;6.10;;;;;;;20.00;100.00;100654.59;5550391;32;34741;-71
2022/08/30 05:31:38;;;;;;;10.15;5.65;;;;;;;19.78;100.00;100656.88;5550488;32;34976;-71
2022/08/30 05:34:41;;;;;;;14.07;6.12;;;;;;;20.07;100.00;100651.84;5536599;32;32658;-71
2022/08/30 05:37:44;;;;;;;13.48;6.20;;;;;;;20.17;100.00;100654.84;5550990;32;34850;-70
2022/08/30 05:40:47;;;;;;;10.88;5.90;;;;;;;20.32;100.00;100661.53;5550499;32;34467;-70
2022/08/30 05:43:52;;;;;;;9.85;5.70;;;;;;;20.51;100.00;100658.84;5536569;32;34177;-70
2022/08/30 05:46:55;;;;;;;8.05;5.50;;;;;;;20.65;100.00;100665.72;5536725;32;33587;-70
2022/08/30 05:49:58;;;;;;;7.15;5.15;;;;;;;20.81;100.00;100663.22;5550537;32;34851;-71
2022/08/30 05:53:00;;;;;;;9.00;5.50;;;;;;;21.06;100.00;100656.84;5550366;32;34292;-70
2022/08/30 05:56:06;;;;;;;6.78;5.32;;;;;;;20.90;100.00;100668.28;5550266;32;34676;-70
2022/08/30 05:59:09;;;;;;;9.38;5.62;;;;;;;20.87;100.00;100677.66;5536636;32;33174;-70
2022/08/30 06:02:12;;;;;;;8.18;5.85;;;;;;;20.62;100.00;100680.44;5536365;32;33291;-69
2022/08/30 06:05:15;;;;;;;8.43;5.30;;;;;;;20.82;100.00;100682.91;5550593;32;34884;-70
2022/08/30 06:08:17;;;;;;;10.75;5.82;;;;;;;20.71;100.00;100672.91;5550042;32;35096;-69
2022/08/30 06:11:22;;;;;;;9.63;5.65;;;;;;;20.88;100.00;100673.06;5550549;32;34979;-70
2022/08/30 06:14:28;;;;;;;8.70;5.65;;;;;;;21.01;100.00;100681.81;5536517;32;33294;-71
2022/08/30 06:17:30;;;;;;;10.73;7.03;;;;;;;21.17;100.00;100672.28;5536957;32;32592;-70
2022/08/30 06:20:38;;;;;;;10.13;7.03;;;;;;;21.25;100.00;100671.97;5550088;32;34311;-71
2022/08/30 06:23:41;;;;;;;10.40;7.05;;;;;;;21.22;100.00;100680.50;5550034;32;34511;-70
2022/08/30 06:26:45;;;;;;;10.45;6.12;;;;;;;21.44;100.00;100678.13;5536301;32;33011;-71
2022/08/30 06:29:52;;;;;;;10.48;6.47;;;;;;;21.78;100.00;100673.81;5549858;32;34418;-71
2022/08/30 06:32:54;;;;;;;8.10;6.97;;;;;;;22.23;100.00;100682.16;5535790;32;33394;-71
2022/08/30 06:36:19;;;;;;;9.25;6.50;;;;;;;22.48;98.25;100682.72;5549270;32;34961;-72
2022/08/30 06:39:22;;;;;;;9.70;6.47;;;;;;;21.97;99.48;100673.50;5536185;32;33318;-71
2022/08/30 06:42:30;;;;;;;8.75;5.78;;;;;;;22.11;100.00;100676.78;5550041;32;34219;-69
2022/08/30 06:45:34;;;;;;;10.25;6.32;;;;;;;22.14;97.33;100675.47;5549652;32;34708;-69
2022/08/30 06:48:37;;;;;;;9.88;5.50;;;;;;;22.29;98.96;100663.13;5550109;32;33954;-70
2022/08/30 06:51:40;;;;;;;11.52;5.78;;;;;;;22.52;96.62;100676.59;5535807;32;33589;-70
2022/08/30 06:54:43;;;;;;;8.75;5.30;;;;;;;22.78;92.13;100679.84;5535934;32;33723;-70
2022/08/30 06:57:46;;;;;;;8.25;5.32;;;;;;;22.88;90.99;100678.19;5550250;32;34236;-69
2022/08/30 07:00:49;;;;;;;12.32;5.45;;;;;;;22.82;88.10;100681.00;5535658;32;32700;-70
2022/08/30 07:03:52;;;;;;;10.98;5.45;;;;;;;22.95;88.44;100681.53;5549867;32;34971;-70
2022/08/30 07:06:55;;;;;;;11.95;6.87;;;;;;;22.95;90.16;100683.41;5550136;32;34338;-70
2022/08/30 07:09:58;;;;;;;7.12;5.97;;;;;;;22.99;86.60;100690.03;5549428;32;34177;-70
2022/08/30 07:13:00;;;;;;;8.45;5.22;;;;;;;22.88;85.38;100689.00;5549873;32;34810;-70
2022/08/30 07:16:11;;;;;;;8.55;5.60;;;;;;;23.11;85.14;100698.91;5549239;32;35516;-70
2022/08/30 07:19:14;;;;;;;7.25;5.57;;;;;;;23.10;85.79;100694.53;5549683;32;34692;-70
2022/08/30 07:22:22;;;;;;;7.12;5.57;;;;;;;23.07;85.31;100699.62;5549420;32;34288;-70
2022/08/30 07:25:26;;;;;;;9.07;5.82;;;;;;;23.53;83.37;100702.09;5549374;32;34388;-71
2022/08/30 07:28:28;;;;;;;7.32;5.20;;;;;;;23.79;79.56;100689.81;5549295;32;35520;-71
2022/08/30 07:31:33;;;;;;;8.13;5.15;;;;;;;24.61;74.23;100703.47;5535239;32;33043;-69
2022/08/30 07:34:35;;;;;;;7.60;4.78;;;;;;;24.87;74.92;100708.19;5549330;32;34785;-70
2022/08/30 07:37:38;;;;;;;10.88;4.68;;;;;;;24.96;71.21;100705.84;5535530;32;34235;-69
2022/08/30 07:40:41;;;;;;;8.43;4.07;;;;;;;26.19;68.60;100709.41;5548894;32;34361;-71
2022/08/30 07:43:45;;;;;;;8.10;4.40;;;;;;;26.90;63.08;100710.59;5549495;32;34157;-72
2022/08/30 07:46:47;;;;;;;6.32;4.03;;;;;;;27.75;60.10;100713.75;5550177;32;34322;-71
2022/08/30 07:49:50;;;;;;;5.60;3.55;;;;;;;27.01;64.37;100717.72;5537392;32;33012;-71
2022/08/30 07:52:53;;;;;;;6.80;3.20;;;;;;;26.33;58.59;100710.59;5537329;32;33920;-70
2022/08/30 07:55:55;;;;;;;4.28;2.97;;;;;;;27.50;54.35;100714.56;5551265;32;34213;-71
2022/08/30 07:58:58;;;;;;;4.75;2.90;;;;;;;28.17;52.74;100716.19;5537602;32;32974;-70
2022/08/30 08:02:01;;;;;;;4.22;2.92;;;;;;;28.98;51.02;100722.22;5551125;32;34878;-71
2022/08/30 08:05:06;;;;;;;5.15;2.95;;;;;;;29.82;49.35;100714.81;5551191;32;34265;-71
2022/08/30 08:08:10;;;;;;;7.15;3.08;;;;;;;30.36;45.85;100720.03;5551656;32;34260;-71
2022/08/30 08:11:16;;;;;;;7.93;2.95;;;;;;;30.78;43.60;100716.56;5551706;32;34532;-71
2022/08/30 08:14:20;;;;;;;7.37;3.20;;;;;;;31.62;42.59;100706.59;5551107;32;34902;-70
2022/08/30 08:17:23;;;;;;;6.40;3.50;;;;;;;31.16;43.34;100706.47;5537584;32;34241;-70
2022/08/30 08:20:27;;;;;;;6.90;2.87;;;;;;;31.24;43.04;100709.34;5550749;32;35068;-70
2022/08/30 08:23:29;;;;;;;4.72;2.90;;;;;;;31.72;41.10;100709.97;5537055;32;33369;-70
2022/08/30 08:26:36;;;;;;;9.02;3.10;;;;;;;32.03;41.33;100703.97;5551076;32;34303;-70
2022/08/30 08:29:42;;;;;;;5.03;2.85;;;;;;;31.84;42.25;100713.09;5550312;32;34259;-71
2022/08/30 08:32:47;;;;;;;6.97;3.10;;;;;;;31.29;42.55;100708.47;5550783;32;34202;-71
2022/08/30 08:35:50;;;;;;;5.78;3.58;;;;;;;30.05;45.88;100705.88;5537094;32;34998;-70
2022/08/30 08:38:52;;;;;;;7.00;3.22;;;;;;;29.83;47.03;100706.31;5536774;32;32954;-70
2022/08/30 08:42:12;;;;;;;6.50;3.00;;;;;;;29.68;44.61;100710.00;5536737;32;34284;-70
2022/08/30 08:45:22;;;;;;;7.22;3.10;;;;;;;29.67;45.14;100707.56;5537528;32;34467;-70
2022/08/30 08:48:33;;;;;;;4.95;3.08;;;;;;;28.86;47.67;100699.88;5550804;32;32899;-71
2022/08/30 08:55:21;;;;;;;5.05;2.72;;;;;;;30.10;46.01;100697.63;5550435;32;34571;-70
2022/08/30 08:58:28;;;;;;;6.00;3.42;;;;;;;31.38;42.13;100696.53;5536588;32;34125;-71
2022/08/30 09:01:32;;;;;;;6.72;3.40;;;;;;;31.43;42.54;100698.37;5550767;32;34251;-70
2022/08/30 09:04:38;;;;;;;8.88;3.30;;;;;;;31.78;42.02;100699.75;5550913;32;34406;-70
2022/08/30 09:07:47;;;;;;;7.35;3.22;;;;;;;31.48;41.12;100696.38;5537385;32;34148;-71
2022/08/30 09:11:17;;;;;;;6.12;3.00;;;;;;;30.47;42.16;100688.72;5551183;32;34596;-71
2022/08/30 09:14:39;;;;;;;9.83;3.07;;;;;;;32.59;36.70;100687.22;5550739;32;35021;-70
2022/08/30 09:17:53;;;;;;;3.10;2.40;;;;;;;33.13;35.51;100698.16;5537113;32;32595;-71
2022/08/30 09:21:03;;;;;;;;;;;;;;;31.63;39.53;100680.81;5550744;32;34314;-71
2022/08/30 09:24:09;;;;;;;3.50;2.65;;;;;;;31.17;42.08;100677.97;5550957;32;34500;-71
2022/08/30 09:27:25;;;;;;;9.43;3.22;;;;;;;30.89;41.51;100677.75;5550705;32;34951;-71
2022/08/30 09:30:28;;;;;;;5.43;3.10;;;;;;;31.29;41.44;100673.66;5550842;32;34098;-70
2022/08/30 09:33:32;;;;;;;4.75;3.35;;;;;;;30.55;40.72;100672.47;5550387;32;35487;-70
2022/08/30 09:36:42;;;;;;;5.32;3.15;;;;;;;30.10;45.88;100662.88;5550433;32;34951;-71
2022/08/30 09:39:46;;;;;;;13.77;3.50;;;;;;;29.96;42.93;100664.66;5550868;32;34196;-70
2022/08/30 09:43:17;;;;;;;10.60;3.25;;;;;;;30.37;43.24;100656.78;5550826;32;34228;-71
2022/08/30 09:46:23;;;;;;;6.80;3.70;;;;;;;29.91;45.71;100661.97;5549149;32;34603;-71
2022/08/30 09:49:40;;;;;;;8.18;3.60;;;;;;;29.67;44.76;100656.44;5536973;32;32998;-71
2022/08/30 09:53:09;;;;;;;8.70;3.10;;;;;;;29.93;44.99;100651.53;5550365;32;34241;-71
2022/08/30 09:56:11;;;;;;;;;;;;;;;30.17;43.34;100646.91;5537020;32;33932;-71
2022/08/30 09:59:32;;;;;;;6.15;3.50;;;;;;;30.18;42.96;100645.78;5536407;32;35187;-71
2022/08/30 10:03:06;;;;;;;7.57;3.33;;;;;;;30.23;42.71;100640.25;5550638;32;34942;-71
2022/08/30 10:06:22;;;;;;;4.90;3.50;;;;;;;30.27;44.07;100637.75;5536552;32;33458;-71
2022/08/30 10:09:51;;;;;;;8.07;3.60;;;;;;;29.79;43.42;100632.22;5548936;32;34370;-70
2022/08/30 10:13:18;;;;;;;8.65;3.55;;;;;;;29.07;43.38;100632.28;5550760;32;34856;-71
2022/08/30 10:16:43;;;;;;;5.37;3.65;;;;;;;29.34;45.03;100636.19;5550265;32;33949;-69
2022/08/30 10:20:29;;;;;;;7.82;3.70;;;;;;;29.45;45.10;100628.72;5550160;32;34865;-70
2022/08/30 10:23:41;;;;;;;10.23;3.60;;;;;;;29.84;43.65;100628.62;5549572;32;34529;-71
2022/08/30 10:26:58;;;;;;;7.00;3.42;;;;;;;30.10;41.32;100630.03;5511551;32;33836;-70
2022/08/30 10:30:35;;;;;;;5.78;4.18;;;;;;;30.16;42.78;100626.09;5617903;31;189856;-71
2022/08/30 10:33:44;;;;;;;5.72;3.53;;;;;;;30.16;42.78;100626.09;5603536;31;33531;-71
2022/08/30 10:37:12;;;;;;;5.15;3.30;;;;;;;30.38;44.48;100619.28;5604227;31;33799;-70
2022/08/30 10:43:58;;;;;;;8.95;3.37;;;;;;;30.49;42.45;100612.59;5603907;31;34104;-70
2022/08/30 10:47:04;;;;;;;6.47;3.65;;;;;;;32.24;39.12;100614.66;5590222;31;33203;-70
2022/08/30 10:50:20;;;;;;;6.30;3.55;;;;;;;34.29;35.00;100605.47;5604392;31;35092;-70
2022/08/30 10:53:43;;;;;;;6.05;3.42;;;;;;;34.37;33.62;100604.72;5604068;31;33901;-71
2022/08/30 10:56:51;;;;;;;5.60;3.28;;;;;;;34.24;33.32;100602.87;5603891;31;35044;-70
2022/08/30 11:00:01;;;;;;;5.60;3.58;;;;;;;37.20;28.71;100611.25;5603151;31;32429;-73
2022/08/30 11:03:38;;;;;;;7.65;3.40;;;;;;;37.34;28.80;100603.44;5603794;31;34244;-71
2022/08/30 11:07:06;;;;;;;4.53;3.10;;;;;;;37.56;27.51;100596.75;5603054;31;32429;-71
2022/08/30 11:10:23;;;;;;;8.00;3.30;;;;;;;40.48;25.36;100590.06;5590220;31;32483;-71
2022/08/30 11:13:30;;;;;;;5.87;3.15;;;;;;;40.51;23.65;100587.38;5589680;31;32324;-71
2022/08/30 11:16:37;;;;;;;6.00;3.10;;;;;;;39.73;23.65;100590.22;5603323;31;34510;-71
2022/08/30 11:19:40;;;;;;;7.80;3.10;;;;;;;41.79;22.43;100589.87;5602793;31;34416;-72
2022/08/30 11:23:12;;;;;;;5.87;3.08;;;;;;;42.56;20.43;100589.53;5603486;31;33943;-73
2022/08/30 11:26:43;;;;;;;5.28;3.10;;;;;;;40.50;23.03;100579.37;5592007;31;33141;-72
2022/08/30 11:29:47;;;;;;;4.72;2.83;;;;;;;41.63;21.23;100568.56;5602111;31;33835;-72
2022/08/30 11:33:23;;;;;;;7.78;2.90;;;;;;;41.86;20.41;100576.91;5603111;31;32424;-72
2022/08/30 11:36:30;;;;;;;7.75;2.67;;;;;;;42.70;20.89;100562.59;5599859;31;32503;-72
2022/08/30 11:39:52;;;;;;;7.22;3.00;;;;;;;38.97;24.22;100553.28;5599530;31;35228;-72
2022/08/30 11:42:55;;;;;;;5.07;2.83;;;;;;;40.55;23.10;100546.53;5590111;31;34179;-71
2022/08/30 11:46:22;;;;;;;3.58;2.55;;;;;;;41.30;22.90;100548.81;5589029;31;33264;-71
2022/08/30 11:50:04;;;;;;;6.93;3.10;;;;;;;42.78;20.17;100542.00;5589966;31;34531;-71
2022/08/30 11:53:32;;;;;;;6.20;2.90;;;;;;;43.64;18.93;100541.66;5590490;31;33807;-71
2022/08/30 11:57:02;;;;;;;5.35;3.08;;;;;;;40.87;21.73;100535.25;5589466;31;33975;-71
2022/08/30 12:00:28;;;;;;;5.75;2.50;;;;;;;40.54;22.05;100525.44;5589221;31;33318;-71
2022/08/30 12:03:33;;;;;;;6.72;2.87;;;;;;;43.33;20.24;100509.44;5590004;31;33792;-72
2022/08/30 12:06:39;;;;;;;5.20;3.10;;;;;;;42.61;20.21;100520.22;5589302;31;32473;-72
2022/08/30 12:09:42;;;;;;;4.93;2.60;;;;;;;42.80;20.21;100506.09;5589175;31;32410;-72
2022/08/30 12:12:48;;;;;;;5.85;3.10;;;;;;;44.18;18.64;100512.09;5589862;31;33770;-72
2022/08/30 12:16:19;;;;;;;4.30;3.00;;;;;;;45.11;17.91;100516.06;5589216;31;32709;-71
2022/08/30 12:19:24;;;;;;;4.45;2.70;;;;;;;44.85;16.98;100509.59;5590015;31;33874;-73
2022/08/30 12:22:29;;;;;;;3.75;2.70;;;;;;;44.76;17.25;100499.97;5590176;31;33838;-72
2022/08/30 12:25:32;;;;;;;4.10;2.50;;;;;;;44.49;17.82;100497.47;5590056;31;33763;-72
2022/08/30 12:28:37;;;;;;;5.62;2.90;;;;;;;43.44;19.39;100486.38;5589517;31;33929;-72
2022/08/30 12:32:02;;;;;;;5.22;2.80;;;;;;;40.54;23.19;100475.38;5576288;31;32390;-71
2022/08/30 12:35:18;;;;;;;7.65;2.87;;;;;;;41.78;21.80;100474.06;5590022;31;34430;-72
2022/08/30 12:38:21;;;;;;;4.10;3.00;;;;;;;45.87;17.13;100477.22;5589134;31;33876;-71
2022/08/30 12:41:29;;;;;;;6.47;2.60;;;;;;;42.88;19.84;100462.34;5589066;31;32477;-72
2022/08/30 12:44:32;;;;;;;3.30;2.28;;;;;;;39.12;23.55;100454.59;5589051;31;32732;-71
2022/08/30 12:47:38;;;;;;;4.18;2.70;;;;;;;36.38;26.96;100452.56;5589680;31;34115;-71
2022/08/30 12:50:50;;;;;;;5.40;2.70;;;;;;;35.14;29.55;100444.00;5589780;31;33868;-71
2022/08/30 12:54:03;;;;;;;5.40;2.90;;;;;;;35.80;29.66;100439.66;5588456;31;33925;-71
2022/08/30 12:57:07;;;;;;;4.93;2.87;;;;;;;36.39;29.19;100437.59;5588849;31;33089;-71
2022/08/30 13:00:34;;;;;;;6.53;3.60;;;;;;;35.04;28.71;100431.38;5589715;31;34461;-71
2022/08/30 13:03:37;;;;;;;6.68;2.95;;;;;;;38.75;24.81;100439.31;5589746;31;33790;-71
2022/08/30 13:06:54;;;;;;;4.30;2.60;;;;;;;39.12;24.96;100437.94;5588930;31;33865;-70
2022/08/30 13:10:06;;;;;;;4.82;2.97;;;;;;;41.36;23.11;100433.19;5588681;31;32810;-71
2022/08/30 13:13:44;;;;;;;8.80;2.78;;;;;;;39.70;23.28;100436.19;5588733;31;32424;-71
2022/08/30 13:17:18;;;;;;;6.03;3.40;;;;;;;38.28;25.75;100435.25;5581221;31;33168;-70
2022/08/30 13:20:24;;;;;;;5.20;2.93;;;;;;;34.42;30.40;100422.75;5589381;31;33814;-69
2022/08/30 13:23:27;;;;;;;7.82;3.70;;;;;;;32.80;34.53;100416.41;5588646;31;34597;-70
2022/08/30 13:26:36;;;;;;;4.93;2.87;;;;;;;31.64;35.81;100413.63;5588342;31;33354;-70
2022/08/30 13:29:42;;;;;;;5.15;3.37;;;;;;;30.88;37.32;100412.34;5587931;31;32733;-70
2022/08/30 13:32:50;;;;;;;6.28;3.25;;;;;;;30.30;41.08;100406.44;5588014;31;32291;-70
2022/08/30 13:35:53;;;;;;;6.45;3.37;;;;;;;29.26;41.39;100401.75;5589264;31;34553;-70
2022/08/30 13:38:58;;;;;;;4.85;3.05;;;;;;;32.07;38.33;100403.88;5588936;31;33806;-71
2022/08/30 13:42:00;;;;;;;6.10;2.83;;;;;;;36.06;29.51;100407.16;5588888;31;34478;-70
2022/08/30 13:45:23;;;;;;;8.80;3.33;;;;;;;33.70;32.21;100393.03;5588398;31;32697;-70
2022/08/30 13:48:48;;;;;;;4.15;2.75;;;;;;;32.21;35.90;100398.38;5589178;31;33801;-71
2022/08/30 13:51:56;;;;;;;5.50;3.03;;;;;;;30.03;40.89;100396.16;5588117;31;33845;-70
2022/08/30 13:55:19;;;;;;;5.65;3.28;;;;;;;28.64;45.07;100393.63;5589011;31;33855;-71
2022/08/30 13:58:22;;;;;;;14.25;3.33;;;;;;;29.78;43.26;100387.19;5588102;31;32576;-71
2022/08/30 14:01:25;;;;;;;5.30;3.30;;;;;;;29.41;43.68;100383.59;5588862;31;33862;-71
2022/08/30 14:04:31;;;;;;;4.50;3.22;;;;;;;29.12;45.85;100384.44;5587733;31;32312;-70
2022/08/30 14:07:38;;;;;;;6.07;3.15;;;;;;;30.19;44.94;100381.97;5588798;31;34595;-70
2022/08/30 14:10:42;;;;;;;5.35;3.20;;;;;;;33.38;35.76;100376.91;5588397;31;34522;-69
2022/08/30 14:13:50;;;;;;;3.12;2.65;;;;;;;33.86;34.91;100376.84;5588497;31;33914;-70
2022/08/30 14:17:13;;;;;;;4.25;3.10;;;;;;;32.68;36.23;100374.97;5576766;31;32244;-70
2022/08/30 14:20:17;;;;;;;6.65;3.12;;;;;;;31.69;38.13;100378.69;5587600;31;34736;-70
2022/08/30 14:23:20;;;;;;;7.87;3.00;;;;;;;30.44;41.66;100364.31;5588050;31;33896;-70
2022/08/30 14:26:29;;;;;;;4.30;3.08;;;;;;;29.89;42.82;100363.28;5588220;31;33939;-70
2022/08/30 14:29:35;;;;;;;5.75;3.45;;;;;;;30.48;42.14;100359.09;5587892;31;34843;-70
2022/08/30 14:32:40;;;;;;;6.75;3.25;;;;;;;29.89;43.13;100351.53;5588186;31;33887;-70
2022/08/30 14:35:45;;;;;;;4.72;3.28;;;;;;;29.08;45.32;100356.09;5574359;31;33832;-70
2022/08/30 14:38:48;;;;;;;4.07;3.30;;;;;;;28.56;46.72;100358.78;5588076;31;33975;-70